Time;durP1;ratioP1;P1;durP2;ratioP2;P2;SDS_P1;SDS_P2;PMS_P1;PMS_P2;Temp;Humidity;BMP_temperature;BMP_pressure;BME280_temperature;BME280_humidity;BME280_pressure;Samples;Min_cycle;Max_cycle;Signal;HPM_P1;HPM_P2
2023/10/09 00:01:46;;;;;;;7.18;1.92;;;9.50;99.90;;;;;;5007170;28;20206;-77
2023/10/09 00:04:13;;;;;;;9.02;2.70;;;9.60;99.90;;;;;;4989700;28;20041;-78
2023/10/09 00:06:42;;;;;;;5.32;1.48;;;9.60;99.90;;;;;;5007747;28;20010;-78
2023/10/09 00:11:56;;;;;;;11.48;2.38;;;9.60;99.90;;;;;;5008060;28;20025;-79
2023/10/09 00:14:26;;;;;;;2.60;1.73;;;9.60;99.90;;;;;;5005346;28;20074;-78
2023/10/09 00:19:37;;;;;;;5.85;1.88;;;9.50;99.90;;;;;;5005023;28;19908;-78
2023/10/09 00:25:10;;;;;;;4.53;1.52;;;9.70;99.90;;;;;;5004541;28;20317;-79
2023/10/09 00:27:44;;;;;;;8.10;1.60;;;9.60;99.90;;;;;;5008902;28;20021;-77
2023/10/09 00:30:29;;;;;;;12.00;1.55;;;9.60;99.90;;;;;;5009237;28;20014;-78
2023/10/09 00:35:54;;;;;;;3.10;2.45;;;9.50;99.90;;;;;;5009537;28;20301;-79
2023/10/09 00:40:47;;;;;;;16.05;2.65;;;9.30;99.90;;;;;;5009294;28;20313;-78
2023/10/09 00:43:14;;;;;;;6.43;2.45;;;9.30;99.90;;;;;;5009203;28;20022;-76
2023/10/09 00:45:44;;;;;;;5.07;2.33;;;9.30;99.90;;;;;;5009150;28;20042;-76
2023/10/09 00:48:13;;;;;;;3.28;1.55;;;9.20;99.90;;;;;;5009030;28;20018;-76
2023/10/09 00:50:47;;;;;;;5.90;2.17;;;9.20;99.90;;;;;;4991846;28;20022;-77
2023/10/09 00:53:18;;;;;;;7.28;1.85;;;9.10;99.90;;;;;;4991961;28;20093;-76
2023/10/09 00:55:45;;;;;;;4.90;1.90;;;9.10;99.90;;;;;;4991927;28;20018;-77
2023/10/09 00:58:13;;;;;;;7.38;2.80;;;9.10;99.90;;;;;;5009206;28;20018;-76
2023/10/09 01:06:14;;;;;;;10.38;1.77;;;9.10;99.90;;;;;;5009410;28;20203;-78
2023/10/09 01:11:14;;;;;;;6.72;1.80;;;9.20;99.90;;;;;;5009284;28;20046;-77
2023/10/09 01:16:17;;;;;;;11.02;2.20;;;9.00;99.90;;;;;;5008183;28;20110;-78
2023/10/09 01:18:50;;;;;;;2.42;1.88;;;9.10;99.90;;;;;;4990667;28;20354;-78
2023/10/09 01:21:17;;;;;;;3.92;2.72;;;9.30;99.90;;;;;;4990609;28;20050;-78
2023/10/09 01:24:03;;;;;;;11.88;2.58;;;9.20;99.90;;;;;;4991029;28;20026;-77
2023/10/09 01:26:46;;;;;;;8.38;2.30;;;9.30;99.90;;;;;;4991225;28;20018;-78
2023/10/09 01:29:19;;;;;;;22.98;2.38;;;9.50;99.90;;;;;;5008507;28;20027;-77
2023/10/09 01:32:06;;;;;;;7.97;2.33;;;9.50;99.90;;;;;;4990266;28;20014;-78
2023/10/09 01:37:05;;;;;;;7.10;2.72;;;9.30;99.90;;;;;;5007821;28;20032;-78
2023/10/09 01:39:31;;;;;;;3.33;2.90;;;9.20;99.90;;;;;;4990335;28;20014;-77
2023/10/09 01:42:05;;;;;;;3.17;2.28;;;9.10;99.90;;;;;;4990411;28;20028;-78
2023/10/09 01:44:35;;;;;;;5.10;2.72;;;9.00;99.90;;;;;;5007871;28;20026;-77
2023/10/09 01:47:07;;;;;;;3.20;1.77;;;8.90;99.90;;;;;;4990315;28;20026;-78
2023/10/09 01:49:41;;;;;;;4.07;1.92;;;8.90;99.90;;;;;;4990403;28;20026;-78
2023/10/09 01:52:16;;;;;;;7.13;3.90;;;8.80;99.90;;;;;;4990316;28;20218;-79
2023/10/09 01:54:49;;;;;;;4.10;1.35;;;8.80;99.90;;;;;;4990312;28;20022;-78
2023/10/09 01:57:22;;;;;;;3.38;2.25;;;8.80;99.90;;;;;;4990702;28;20769;-79
2023/10/09 01:59:49;;;;;;;7.20;2.35;;;8.80;99.90;;;;;;4990686;28;20060;-78
2023/10/09 02:05:40;;;;;;;8.85;2.60;;;8.70;99.90;;;;;;5008202;28;20053;-79
2023/10/09 02:07:53;;;;;;;6.43;3.00;;;8.70;99.90;;;;;;5002669;28;20026;-78
2023/10/09 02:13:06;;;;;;;3.03;1.77;;;8.90;99.90;;;;;;5007946;28;20025;-78
2023/10/09 02:26:19;;;;;;;4.70;2.88;;;8.90;99.90;;;;;;5008598;28;20090;-79
2023/10/09 02:28:52;;;;;;;5.68;1.88;;;8.90;99.90;;;;;;5008024;28;20022;-79
2023/10/09 02:31:21;;;;;;;11.15;2.28;;;8.90;99.90;;;;;;4990846;28;20014;-78
2023/10/09 02:33:50;;;;;;;6.07;2.40;;;8.90;99.90;;;;;;4990289;28;20215;-78
2023/10/09 02:36:15;;;;;;;5.88;1.95;;;9.00;99.90;;;;;;4991238;28;20085;-78
2023/10/09 02:38:42;;;;;;;3.13;2.05;;;8.90;99.90;;;;;;5008623;28;20026;-78
2023/10/09 02:43:55;;;;;;;15.20;2.10;;;8.90;99.90;;;;;;5006243;28;20029;-79
2023/10/09 02:46:28;;;;;;;8.00;2.60;;;8.80;99.90;;;;;;4991043;28;20018;-78
2023/10/09 02:48:58;;;;;;;5.15;2.28;;;8.70;99.90;;;;;;4990474;28;20061;-78
2023/10/09 02:53:55;;;;;;;9.30;3.10;;;8.70;99.90;;;;;;5008455;28;20033;-79
2023/10/09 02:59:08;;;;;;;12.40;2.15;;;8.90;99.90;;;;;;5008094;28;20094;-79
2023/10/09 03:01:34;;;;;;;3.15;2.22;;;8.90;99.90;;;;;;5008281;28;20019;-78
2023/10/09 03:04:14;;;;;;;4.40;2.53;;;8.80;99.90;;;;;;4990977;28;20034;-78
2023/10/09 03:06:49;;;;;;;;;;;8.70;99.90;;;;;;5008873;28;20014;-79
2023/10/09 03:09:16;;;;;;;4.70;1.60;;;8.70;99.90;;;;;;4991377;28;19972;-79
2023/10/09 03:12:12;;;;;;;5.22;2.28;;;8.60;99.90;;;;;;5008441;28;20353;-78
2023/10/09 03:14:41;;;;;;;8.15;2.03;;;8.50;99.90;;;;;;5007266;28;20336;-79
2023/10/09 03:17:11;;;;;;;8.57;2.83;;;8.50;99.90;;;;;;5007092;28;20082;-79
2023/10/09 03:19:37;;;;;;;14.73;1.90;;;8.50;99.90;;;;;;4990432;28;20021;-78
2023/10/09 03:22:10;;;;;;;8.98;2.78;;;8.50;99.90;;;;;;5008701;28;20022;-78
2023/10/09 03:24:36;;;;;;;5.25;2.75;;;8.50;99.90;;;;;;4991387;28;20269;-79
2023/10/09 03:27:05;;;;;;;11.38;2.13;;;8.60;99.90;;;;;;4989255;28;20037;-79
2023/10/09 03:29:31;;;;;;;4.32;1.63;;;8.50;99.90;;;;;;4989077;28;20022;-79
2023/10/09 03:31:56;;;;;;;6.22;2.50;;;8.60;99.90;;;;;;4989188;28;20014;-79
2023/10/09 03:34:23;;;;;;;2.20;1.40;;;8.50;99.90;;;;;;4989123;28;20365;-79
2023/10/09 03:36:59;;;;;;;7.60;1.92;;;8.50;99.90;;;;;;4989359;28;20030;-78
2023/10/09 03:39:38;;;;;;;5.60;2.58;;;8.50;99.90;;;;;;5006596;28;20014;-78
2023/10/09 03:42:04;;;;;;;4.95;2.33;;;8.40;99.90;;;;;;4989058;28;20022;-79
2023/10/09 03:44:35;;;;;;;4.93;2.13;;;8.30;99.90;;;;;;5006309;28;20036;-78
2023/10/09 03:47:02;;;;;;;3.72;2.33;;;8.40;99.90;;;;;;4989073;28;20025;-78
2023/10/09 03:49:29;;;;;;;11.13;3.13;;;8.40;99.90;;;;;;5006781;28;20179;-77
2023/10/09 03:51:55;;;;;;;6.65;2.20;;;8.40;99.90;;;;;;4989439;28;20022;-77
2023/10/09 03:54:22;;;;;;;10.82;3.38;;;8.40;99.90;;;;;;5006694;28;20138;-78
2023/10/09 03:56:50;;;;;;;2.10;1.67;;;8.40;99.90;;;;;;5006636;28;20022;-79
2023/10/09 03:59:17;;;;;;;22.13;3.65;;;8.40;99.90;;;;;;5006562;28;20061;-77
2023/10/09 04:01:43;;;;;;;6.22;2.22;;;8.30;99.90;;;;;;4987387;28;20102;-76
2023/10/09 04:04:13;;;;;;;3.30;1.88;;;8.40;99.90;;;;;;5006269;28;20190;-79
2023/10/09 04:06:39;;;;;;;;;;;8.40;99.90;;;;;;4989864;28;20026;-77
2023/10/09 04:11:49;;;;;;;;;;;8.40;99.90;;;;;;5005260;28;20018;-77
2023/10/09 04:14:54;;;;;;;14.73;2.38;;;8.40;99.90;;;;;;5004721;28;19964;-77
2023/10/09 04:19:48;;;;;;;11.13;2.13;;;8.60;99.90;;;;;;5005611;28;20344;-78
2023/10/09 04:22:26;;;;;;;10.27;2.60;;;8.50;99.90;;;;;;5005225;28;20018;-78
2023/10/09 04:24:53;;;;;;;1.77;1.42;;;8.60;99.90;;;;;;5005378;28;20026;-78
2023/10/09 04:27:26;;;;;;;9.77;2.75;;;8.70;99.90;;;;;;5005634;28;20023;-78
2023/10/09 04:29:54;;;;;;;6.35;2.15;;;8.60;99.90;;;;;;4987895;28;20029;-78
2023/10/09 04:32:24;;;;;;;9.10;1.75;;;8.50;99.90;;;;;;5005730;28;20118;-78
2023/10/09 04:35:19;;;;;;;4.32;1.73;;;8.40;99.90;;;;;;4988031;28;20050;-78
2023/10/09 04:37:36;;;;;;;4.03;1.83;;;8.40;99.90;;;;;;5004233;28;20025;-79
2023/10/09 04:40:40;;;;;;;8.60;2.78;;;8.20;99.90;;;;;;5005568;28;20045;-79
2023/10/09 04:42:59;;;;;;;3.42;1.67;;;8.20;99.90;;;;;;5004918;28;20038;-79
2023/10/09 04:48:10;;;;;;;5.65;1.73;;;8.10;99.90;;;;;;5004686;28;20033;-78
2023/10/09 04:50:45;;;;;;;6.80;2.15;;;8.20;99.90;;;;;;5004656;28;20011;-79
2023/10/09 04:55:38;;;;;;;2.38;1.85;;;8.20;99.90;;;;;;5005733;28;20021;-78
2023/10/09 05:03:24;;;;;;;4.55;1.70;;;8.10;99.90;;;;;;5004616;28;20038;-78
2023/10/09 05:05:58;;;;;;;12.30;2.53;;;8.00;99.90;;;;;;4986900;28;20104;-79
2023/10/09 05:16:18;;;;;;;5.32;1.90;;;8.00;99.90;;;;;;5008003;28;20309;-77
2023/10/09 05:18:56;;;;;;;5.00;2.88;;;8.00;99.90;;;;;;4990347;28;20025;-79
2023/10/09 05:31:56;;;;;;;3.95;2.35;;;8.20;99.90;;;;;;5007751;28;20023;-78
2023/10/09 05:34:23;;;;;;;6.68;2.30;;;8.30;99.90;;;;;;5007254;28;20042;-78
2023/10/09 05:36:49;;;;;;;3.33;2.42;;;8.20;99.90;;;;;;5007565;28;20057;-78
2023/10/09 05:39:22;;;;;;;7.20;2.67;;;8.20;99.90;;;;;;4990187;28;20021;-78
2023/10/09 05:41:59;;;;;;;5.10;2.72;;;8.20;99.90;;;;;;4990178;28;20033;-79
2023/10/09 06:03:48;;;;;;;6.20;2.47;;;8.00;99.90;;;;;;5005399;28;20105;-79
2023/10/09 06:06:32;;;;;;;11.07;2.42;;;8.00;99.90;;;;;;5008953;28;20015;-78
2023/10/09 06:09:28;;;;;;;8.57;3.08;;;7.90;99.90;;;;;;4991615;28;20057;-77
2023/10/09 06:19:31;;;;;;;16.42;3.15;;;8.20;99.90;;;;;;5009717;28;20029;-78
2023/10/09 06:24:54;;;;;;;5.30;2.83;;;8.30;99.90;;;;;;5006161;28;20045;-79
2023/10/09 06:27:26;;;;;;;6.22;2.75;;;8.40;99.90;;;;;;4989531;28;20015;-78
2023/10/09 06:30:13;;;;;;;7.05;2.47;;;8.40;99.90;;;;;;4989473;28;20029;-78
2023/10/09 06:32:37;;;;;;;7.70;2.10;;;8.40;99.90;;;;;;5007049;28;20041;-78
2023/10/09 06:35:15;;;;;;;6.35;3.15;;;8.50;99.90;;;;;;4988431;28;20199;-78
2023/10/09 06:45:54;;;;;;;4.82;2.95;;;9.20;99.90;;;;;;5003379;28;20023;-79
2023/10/09 06:51:15;;;;;;;8.90;3.00;;;9.50;99.90;;;;;;5007060;28;20022;-79
2023/10/09 06:58:55;;;;;;;7.85;3.25;;;9.90;99.90;;;;;;5000246;28;20022;-79
2023/10/09 07:04:45;;;;;;;8.52;2.05;;;10.20;99.90;;;;;;5000457;28;20034;-78
2023/10/09 07:07:20;;;;;;;4.50;2.17;;;10.40;99.90;;;;;;5001137;28;20018;-79
2023/10/09 07:12:33;;;;;;;7.18;2.08;;;10.80;99.90;;;;;;4995889;28;20093;-78
2023/10/09 07:20:11;;;;;;;5.60;2.42;;;11.30;99.90;;;;;;4996063;28;20018;-78
2023/10/09 07:22:39;;;;;;;7.15;1.92;;;11.50;99.90;;;;;;4978232;28;20030;-78
2023/10/09 07:25:27;;;;;;;3.30;1.92;;;11.70;99.90;;;;;;4995759;28;20101;-78
2023/10/09 07:27:55;;;;;;;12.48;2.35;;;11.90;99.90;;;;;;4978564;28;20171;-78
2023/10/09 07:38:08;;;;;;;12.55;2.42;;;12.70;99.90;;;;;;5004972;28;20014;-78
2023/10/09 07:43:27;;;;;;;3.40;2.05;;;13.20;99.90;;;;;;4995645;28;20101;-78
2023/10/09 07:48:38;;;;;;;16.25;3.10;;;13.80;99.90;;;;;;4996493;28;20093;-78
2023/10/09 07:51:11;;;;;;;11.18;2.78;;;14.00;99.90;;;;;;4995188;28;20018;-78
2023/10/09 07:53:44;;;;;;;19.17;2.42;;;14.10;99.90;;;;;;4995936;28;20068;-77
2023/10/09 07:56:20;;;;;;;6.00;2.88;;;14.30;99.90;;;;;;4995751;28;20029;-78
2023/10/09 07:58:46;;;;;;;6.47;1.63;;;14.40;99.90;;;;;;4996615;28;20054;-78
2023/10/09 08:01:22;;;;;;;11.18;2.42;;;14.60;99.90;;;;;;4999328;28;20029;-78
2023/10/09 08:06:53;;;;;;;21.92;3.35;;;14.80;99.90;;;;;;4955891;29;20032;-77
2023/10/09 08:09:28;;;;;;;8.80;3.10;;;15.00;99.90;;;;;;4991749;28;20045;-79
2023/10/09 08:12:13;;;;;;;13.80;3.10;;;15.20;99.90;;;;;;5003421;28;20298;-78
2023/10/09 08:14:59;;;;;;;4.03;2.67;;;15.50;99.90;;;;;;5003265;28;20019;-78
2023/10/09 08:17:27;;;;;;;8.15;2.78;;;15.80;99.90;;;;;;4986840;28;20022;-78
2023/10/09 08:20:11;;;;;;;18.70;3.85;;;16.20;99.90;;;;;;5002917;28;20022;-78
2023/10/09 08:22:43;;;;;;;10.15;2.45;;;16.50;99.90;;;;;;4996773;28;20022;-77
2023/10/09 08:28:39;;;;;;;6.90;1.70;;;17.40;99.90;;;;;;5004487;28;20118;-77
2023/10/09 08:36:01;;;;;;;5.30;2.58;;;18.30;99.90;;;;;;5004436;28;20027;-78
2023/10/09 08:38:33;;;;;;;3.45;1.83;;;18.40;99.90;;;;;;5003186;28;20531;-77
2023/10/09 08:41:17;;;;;;;4.63;3.13;;;18.50;99.90;;;;;;5000071;28;20058;-78
2023/10/09 08:43:50;;;;;;;5.45;3.05;;;18.50;99.90;;;;;;4997376;28;20034;-78
2023/10/09 08:46:21;;;;;;;11.15;3.13;;;18.50;99.90;;;;;;5003283;28;20018;-77
2023/10/09 08:48:48;;;;;;;13.55;3.33;;;18.60;99.90;;;;;;5007770;28;20029;-79
2023/10/09 08:51:14;;;;;;;15.65;4.40;;;18.60;99.90;;;;;;5007192;28;20018;-77
2023/10/09 08:53:42;;;;;;;10.50;3.40;;;18.60;99.90;;;;;;4989539;28;20026;-79
2023/10/09 08:56:14;;;;;;;8.68;3.25;;;18.70;99.90;;;;;;5001292;28;20014;-79
2023/10/09 08:58:41;;;;;;;3.75;2.38;;;18.80;99.90;;;;;;5004208;28;20037;-79
2023/10/09 09:01:06;;;;;;;8.60;2.65;;;18.90;99.90;;;;;;5004911;28;20049;-80
2023/10/09 09:03:40;;;;;;;3.33;2.13;;;19.10;99.90;;;;;;5007410;28;20314;-80
2023/10/09 09:06:06;;;;;;;9.82;3.78;;;19.20;99.90;;;;;;4989764;28;20027;-81
2023/10/09 09:08:36;;;;;;;6.35;2.20;;;19.30;99.90;;;;;;5003894;28;20102;-78
2023/10/09 09:11:12;;;;;;;9.80;3.38;;;19.40;99.90;;;;;;5005446;28;20026;-80
2023/10/09 09:13:42;;;;;;;4.45;2.40;;;19.50;99.90;;;;;;4990257;28;20090;-78
2023/10/09 09:16:17;;;;;;;6.10;2.10;;;19.60;99.90;;;;;;5007840;28;20014;-78
2023/10/09 09:19:02;;;;;;;5.88;2.67;;;19.80;99.90;;;;;;5005136;28;20094;-79
2023/10/09 09:21:29;;;;;;;8.38;2.42;;;20.10;99.90;;;;;;5002669;28;20066;-78
2023/10/09 09:23:57;;;;;;;10.70;3.08;;;20.30;99.90;;;;;;5007010;28;20329;-78
2023/10/09 09:26:59;;;;;;;15.20;2.77;;;20.50;99.90;;;;;;4990059;28;20052;-78
2023/10/09 09:29:37;;;;;;;9.65;2.45;;;20.70;99.90;;;;;;4991193;28;20069;-78
2023/10/09 09:32:16;;;;;;;7.70;2.10;;;20.90;99.90;;;;;;4989925;28;20199;-78
2023/10/09 09:34:54;;;;;;;9.20;3.20;;;21.10;99.90;;;;;;4989728;28;20100;-78
2023/10/09 09:37:31;;;;;;;5.38;2.35;;;21.40;99.90;;;;;;5004940;28;20022;-78
2023/10/09 09:42:48;;;;;;;9.50;3.25;;;21.90;99.90;;;;;;4999456;28;20034;-78
2023/10/09 09:45:16;;;;;;;10.50;3.30;;;22.20;99.90;;;;;;4981095;28;20030;-78
2023/10/09 09:47:51;;;;;;;16.65;2.35;;;22.40;98.10;;;;;;5005224;28;20073;-79
2023/10/09 09:50:29;;;;;;;10.35;3.28;;;22.50;97.80;;;;;;5006000;28;20018;-79
2023/10/09 09:52:56;;;;;;;16.63;2.45;;;22.70;95.90;;;;;;4982891;28;20027;-80
2023/10/09 09:55:33;;;;;;;7.97;1.88;;;22.80;95.40;;;;;;4997206;28;20029;-78
2023/10/09 09:58:00;;;;;;;5.97;1.85;;;23.00;95.80;;;;;;4979064;28;20049;-78
2023/10/09 10:00:30;;;;;;;13.18;2.90;;;23.10;94.60;;;;;;4996809;28;20109;-77
2023/10/09 10:03:08;;;;;;;7.40;2.78;;;23.20;94.20;;;;;;5000241;28;20374;-78
2023/10/09 10:05:37;;;;;;;12.43;3.20;;;23.30;94.40;;;;;;5005086;28;20033;-78
2023/10/09 10:08:05;;;;;;;11.38;3.17;;;23.40;94.10;;;;;;4981857;28;20023;-78
2023/10/09 10:10:52;;;;;;;8.50;1.50;;;23.50;93.10;;;;;;4998249;28;20022;-78
2023/10/09 10:13:38;;;;;;;12.18;2.17;;;23.60;92.10;;;;;;4998623;28;20030;-79
2023/10/09 10:16:13;;;;;;;13.35;3.25;;;23.70;91.70;;;;;;4984620;28;20121;-78
2023/10/09 10:19:21;;;;;;;5.97;2.42;;;23.70;92.20;;;;;;5001664;28;20057;-80
2023/10/09 10:21:54;;;;;;;7.17;1.97;;;23.80;92.60;;;;;;5004116;28;20022;-78
2023/10/09 10:24:52;;;;;;;15.63;2.65;;;23.90;91.40;;;;;;4987181;28;20030;-78
2023/10/09 10:27:31;;;;;;;10.90;2.63;;;24.10;90.60;;;;;;4999933;28;20034;-78
2023/10/09 10:30:12;;;;;;;8.48;2.05;;;24.20;90.20;;;;;;5002616;28;20030;-78
2023/10/09 10:32:54;;;;;;;21.08;3.58;;;24.30;88.60;;;;;;4996963;28;20027;-79
2023/10/09 10:35:32;;;;;;;5.28;3.03;;;24.40;87.50;;;;;;4980944;28;20583;-79
2023/10/09 10:40:40;;;;;;;12.98;3.60;;;24.60;87.10;;;;;;4998684;28;20033;-79
2023/10/09 10:43:13;;;;;;;9.48;3.10;;;24.90;87.60;;;;;;4979266;28;20041;-80
2023/10/09 10:45:45;;;;;;;7.90;2.45;;;25.10;86.30;;;;;;4999778;28;20463;-80
2023/10/09 10:48:30;;;;;;;20.30;3.15;;;25.40;86.10;;;;;;4985006;28;20036;-81
2023/10/09 10:50:57;;;;;;;8.43;1.98;;;25.50;81.70;;;;;;4984046;28;20314;-79
2023/10/09 10:53:27;;;;;;;7.97;2.28;;;25.50;81.00;;;;;;4980060;28;20030;-82
2023/10/09 10:56:34;;;;;;;12.60;2.33;;;25.50;81.40;;;;;;4998109;28;20015;-80
2023/10/09 11:01:53;;;;;;;6.40;2.03;;;26.00;81.40;;;;;;5004370;28;20065;-80
2023/10/09 11:07:06;;;;;;;7.03;1.80;;;26.30;78.70;;;;;;5003145;28;20029;-82
2023/10/09 11:12:38;;;;;;;8.30;3.17;;;26.20;78.70;;;;;;4998062;28;20041;-79
2023/10/09 11:18:07;;;;;;;8.35;2.20;;;26.30;77.80;;;;;;4998668;28;20072;-79
2023/10/09 11:20:38;;;;;;;9.35;2.28;;;26.20;77.50;;;;;;4978197;28;20048;-79
2023/10/09 11:25:39;;;;;;;7.72;2.67;;;26.50;78.40;;;;;;4996444;28;20049;-78
2023/10/09 11:28:42;;;;;;;8.57;2.05;;;26.60;77.80;;;;;;4984008;28;20026;-79
2023/10/09 11:31:12;;;;;;;10.95;3.00;;;26.50;76.40;;;;;;5004318;28;20061;-79
2023/10/09 11:33:48;;;;;;;9.88;2.65;;;26.50;75.50;;;;;;4997829;28;20342;-78
2023/10/09 11:36:15;;;;;;;13.60;2.15;;;26.50;75.30;;;;;;4995055;28;20093;-79
2023/10/09 11:38:45;;;;;;;10.20;2.40;;;26.40;75.70;;;;;;4984460;28;20250;-79
2023/10/09 11:41:19;;;;;;;8.52;2.70;;;26.50;75.10;;;;;;4994687;28;20022;-79
2023/10/09 11:43:53;;;;;;;7.82;2.90;;;26.40;75.80;;;;;;4995093;28;20030;-78
2023/10/09 11:54:31;;;;;;;10.63;3.90;;;26.50;74.40;;;;;;4996392;28;20042;-81
2023/10/09 11:57:00;;;;;;;17.50;3.53;;;26.60;74.20;;;;;;4983214;28;20337;-81
2023/10/09 11:59:38;;;;;;;3.38;1.55;;;26.40;73.70;;;;;;4981009;28;20031;-79
2023/10/09 12:02:11;;;;;;;7.43;2.42;;;26.30;73.90;;;;;;5000151;28;20037;-79
2023/10/09 12:04:37;;;;;;;5.88;2.55;;;26.40;73.70;;;;;;5001667;28;20026;-80
2023/10/09 12:07:09;;;;;;;6.45;1.83;;;26.50;73.90;;;;;;4997733;28;20030;-80
2023/10/09 12:09:39;;;;;;;13.07;2.72;;;26.80;73.20;;;;;;4978195;28;20124;-79
2023/10/09 12:12:07;;;;;;;3.78;1.63;;;27.10;72.90;;;;;;4996535;28;20026;-78
2023/10/09 12:14:33;;;;;;;8.25;2.33;;;27.50;72.20;;;;;;4976589;28;20125;-78
2023/10/09 12:17:05;;;;;;;6.07;1.70;;;27.60;71.10;;;;;;4979380;28;20037;-78
2023/10/09 12:19:35;;;;;;;14.23;3.30;;;28.60;70.40;;;;;;4996064;28;20018;-79
2023/10/09 12:22:03;;;;;;;5.05;2.58;;;29.40;68.70;;;;;;4977819;28;20033;-79
2023/10/09 12:24:30;;;;;;;12.35;2.55;;;30.00;67.70;;;;;;5002244;28;20134;-79
2023/10/09 12:26:56;;;;;;;7.93;2.35;;;29.80;67.50;;;;;;5008457;28;20074;-78
2023/10/09 12:29:23;;;;;;;7.35;2.70;;;30.20;66.00;;;;;;4986360;28;20383;-78
2023/10/09 12:31:57;;;;;;;7.68;2.17;;;30.10;65.40;;;;;;4989574;28;20022;-79
2023/10/09 12:34:27;;;;;;;12.15;3.13;;;30.30;64.00;;;;;;4983246;28;20122;-80
2023/10/09 12:37:01;;;;;;;9.25;2.92;;;30.90;63.70;;;;;;4987355;28;20072;-79
2023/10/09 12:39:33;;;;;;;7.32;2.42;;;30.60;63.20;;;;;;4989682;28;20127;-79
2023/10/09 12:42:06;;;;;;;8.93;2.15;;;30.10;63.20;;;;;;5008278;28;20049;-80
2023/10/09 12:44:42;;;;;;;8.63;2.13;;;29.90;64.40;;;;;;4986020;28;20057;-79
2023/10/09 12:47:11;;;;;;;14.38;3.20;;;30.60;65.10;;;;;;4983173;28;20081;-79
2023/10/09 12:49:40;;;;;;;7.65;2.33;;;31.20;62.50;;;;;;4989497;28;20029;-79
2023/10/09 12:52:15;;;;;;;7.45;3.28;;;31.00;61.70;;;;;;5007371;28;20022;-80
2023/10/09 12:54:41;;;;;;;10.93;2.55;;;31.00;60.90;;;;;;4988085;28;20027;-80
2023/10/09 12:57:13;;;;;;;17.33;3.78;;;31.20;61.00;;;;;;4987099;28;20068;-80
2023/10/09 12:59:45;;;;;;;12.57;3.20;;;31.30;61.70;;;;;;4980923;28;20089;-81
2023/10/09 13:02:13;;;;;;;10.45;2.95;;;31.40;61.00;;;;;;4997730;28;20022;-79
2023/10/09 13:04:42;;;;;;;10.30;2.30;;;31.10;61.40;;;;;;4988209;28;20124;-81
2023/10/09 13:07:08;;;;;;;12.25;3.25;;;31.10;60.40;;;;;;4982854;28;20026;-80
2023/10/09 13:10:15;;;;;;;5.93;2.03;;;30.70;61.10;;;;;;4980187;28;20126;-79
2023/10/09 13:12:22;;;;;;;8.15;1.95;;;30.10;61.90;;;;;;5000397;28;20387;-80
2023/10/09 13:14:49;;;;;;;8.05;2.17;;;29.20;62.60;;;;;;4984103;28;20029;-80
2023/10/09 13:17:15;;;;;;;13.00;3.40;;;28.70;63.90;;;;;;4980837;28;20109;-79
2023/10/09 13:19:40;;;;;;;10.48;3.13;;;28.50;64.10;;;;;;4999774;28;20108;-79
2023/10/09 13:22:12;;;;;;;5.55;2.10;;;28.40;65.00;;;;;;4996994;28;20112;-79
2023/10/09 13:24:39;;;;;;;13.18;2.45;;;28.40;65.10;;;;;;4979610;28;20038;-78
2023/10/09 13:27:04;;;;;;;12.63;2.42;;;28.10;66.20;;;;;;4998047;28;20050;-79
2023/10/09 13:29:33;;;;;;;10.93;2.85;;;27.90;65.70;;;;;;4998747;28;20077;-79
2023/10/09 13:32:02;;;;;;;;;;;27.80;65.90;;;;;;4999834;28;20018;-79
2023/10/09 13:34:28;;;;;;;4.88;1.73;;;27.60;67.00;;;;;;4999662;28;19914;-79
2023/10/09 13:36:55;;;;;;;7.75;2.38;;;27.60;67.60;;;;;;4982825;28;20038;-79
2023/10/09 13:39:30;;;;;;;7.82;2.67;;;27.80;67.40;;;;;;5006454;28;20332;-79
2023/10/09 13:41:57;;;;;;;22.40;3.83;;;28.20;67.40;;;;;;4986960;28;20029;-79
2023/10/09 13:44:33;;;;;;;7.70;2.45;;;28.30;67.00;;;;;;4985916;28;20113;-80
2023/10/09 13:47:05;;;;;;;6.82;2.65;;;28.20;66.60;;;;;;5002541;28;20023;-79
2023/10/09 13:49:31;;;;;;;9.00;2.30;;;28.20;66.70;;;;;;4986779;28;20031;-79
2023/10/09 13:51:58;;;;;;;8.45;2.10;;;28.10;67.20;;;;;;5003308;28;20030;-80
2023/10/09 13:57:06;;;;;;;15.57;2.55;;;28.00;67.40;;;;;;4996504;28;20150;-79
2023/10/09 13:59:36;;;;;;;7.63;1.73;;;28.00;66.60;;;;;;4996248;28;20045;-79
2023/10/09 14:02:08;;;;;;;4.13;1.60;;;28.40;67.20;;;;;;4978880;28;20044;-80
2023/10/09 14:04:34;;;;;;;5.75;2.25;;;29.50;66.20;;;;;;4996078;28;20066;-79
2023/10/09 14:07:01;;;;;;;17.92;3.05;;;30.70;64.30;;;;;;4996334;28;20054;-79
2023/10/09 14:09:30;;;;;;;9.73;2.60;;;31.20;62.40;;;;;;4978882;28;20033;-80
2023/10/09 14:12:10;;;;;;;8.30;2.78;;;31.50;61.30;;;;;;4996282;28;20497;-79
2023/10/09 14:14:47;;;;;;;12.88;2.88;;;31.90;61.10;;;;;;4996079;28;20026;-79
2023/10/09 14:17:13;;;;;;;18.60;3.22;;;32.30;60.90;;;;;;4995945;28;20019;-79
2023/10/09 14:19:49;;;;;;;7.10;1.95;;;32.40;61.70;;;;;;4995912;28;20026;-80
2023/10/09 14:22:16;;;;;;;11.02;2.65;;;32.10;60.20;;;;;;4996040;28;20030;-79
2023/10/09 14:24:45;;;;;;;6.53;2.33;;;32.10;59.30;;;;;;4978274;28;20105;-79
2023/10/09 14:27:17;;;;;;;8.73;2.17;;;31.40;60.40;;;;;;4978444;28;20037;-79
2023/10/09 14:29:44;;;;;;;6.25;2.13;;;31.90;61.50;;;;;;4995789;28;20026;-80
2023/10/09 14:32:13;;;;;;;7.70;1.95;;;32.30;60.60;;;;;;4995670;28;20113;-79
2023/10/09 14:34:42;;;;;;;9.35;1.88;;;32.10;59.30;;;;;;4978089;28;20054;-79
2023/10/09 14:37:11;;;;;;;5.97;1.88;;;31.90;60.30;;;;;;4995594;28;20026;-79
2023/10/09 14:39:41;;;;;;;12.20;2.53;;;31.60;61.60;;;;;;4997529;28;20026;-78
2023/10/09 14:42:09;;;;;;;5.35;1.80;;;31.50;60.10;;;;;;4996634;28;20038;-79
2023/10/09 14:44:38;;;;;;;9.07;3.30;;;31.20;60.90;;;;;;4977694;28;20034;-78
2023/10/09 14:47:07;;;;;;;11.20;2.38;;;30.50;60.60;;;;;;4995629;28;20034;-78
2023/10/09 14:49:37;;;;;;;5.93;1.92;;;30.30;61.20;;;;;;4978526;28;20061;-80
2023/10/09 14:52:03;;;;;;;6.95;2.03;;;30.10;62.50;;;;;;4995569;28;20026;-78
2023/10/09 14:54:29;;;;;;;6.25;2.40;;;29.80;62.00;;;;;;4995479;28;20394;-78
2023/10/09 14:56:54;;;;;;;8.95;1.80;;;29.70;62.40;;;;;;4995262;28;20121;-79
2023/10/09 14:59:22;;;;;;;7.57;1.90;;;29.60;62.80;;;;;;4995507;28;20053;-79
2023/10/09 15:01:53;;;;;;;11.75;2.22;;;29.80;63.20;;;;;;4977935;28;20027;-79
2023/10/09 15:04:25;;;;;;;11.85;3.03;;;29.90;62.70;;;;;;4977731;28;20034;-79
2023/10/09 15:06:51;;;;;;;8.15;2.80;;;30.10;62.80;;;;;;4977804;28;20034;-80
2023/10/09 15:09:23;;;;;;;8.63;2.80;;;30.00;62.90;;;;;;4995018;28;20034;-79
2023/10/09 15:11:50;;;;;;;6.63;2.72;;;29.90;61.90;;;;;;4994954;28;20057;-78
2023/10/09 15:14:18;;;;;;;8.93;2.15;;;29.80;62.50;;;;;;4995076;28;20026;-78
2023/10/09 15:16:44;;;;;;;7.75;2.83;;;29.80;62.30;;;;;;4977135;28;20141;-78
2023/10/09 15:19:10;;;;;;;6.90;1.95;;;30.30;62.60;;;;;;4977868;28;20394;-79
2023/10/09 15:21:45;;;;;;;12.32;2.20;;;30.70;62.20;;;;;;4978322;28;20027;-78
2023/10/09 15:24:15;;;;;;;13.27;2.92;;;30.70;61.70;;;;;;5001206;28;20317;-79
2023/10/09 15:26:53;;;;;;;6.85;2.13;;;30.70;62.00;;;;;;4985746;28;20388;-78
2023/10/09 15:29:23;;;;;;;7.18;2.38;;;30.60;62.30;;;;;;4986308;28;20026;-79
2023/10/09 15:31:51;;;;;;;10.52;2.70;;;30.10;62.50;;;;;;4983763;28;20026;-79
2023/10/09 15:34:18;;;;;;;4.57;1.73;;;29.30;63.10;;;;;;4982976;28;20392;-75
2023/10/09 15:36:46;;;;;;;16.40;3.78;;;29.10;63.60;;;;;;4995136;28;20030;-75
2023/10/09 15:39:13;;;;;;;6.82;2.38;;;28.60;63.70;;;;;;4978011;28;20475;-77
2023/10/09 15:41:39;;;;;;;13.77;2.13;;;28.80;64.40;;;;;;4995372;28;20077;-75
2023/10/09 15:44:05;;;;;;;2.97;2.00;;;28.90;64.80;;;;;;4995181;28;20036;-79
2023/10/09 15:46:34;;;;;;;6.70;2.72;;;28.70;63.60;;;;;;4995001;28;20018;-78
2023/10/09 15:49:01;;;;;;;12.18;3.30;;;28.40;63.50;;;;;;4994758;28;20057;-78
2023/10/09 15:51:28;;;;;;;12.38;2.88;;;28.20;64.60;;;;;;4977988;28;20464;-78
2023/10/09 15:53:53;;;;;;;6.38;1.63;;;28.00;65.10;;;;;;4979019;28;20030;-80
2023/10/09 15:56:20;;;;;;;17.92;2.88;;;27.80;65.90;;;;;;4977203;28;20029;-78
2023/10/09 15:58:46;;;;;;;11.18;3.40;;;27.50;65.90;;;;;;4996110;28;20026;-78
2023/10/09 16:01:13;;;;;;;7.53;2.40;;;27.30;66.80;;;;;;5000614;28;20049;-79
2023/10/09 16:03:41;;;;;;;9.82;2.47;;;27.10;67.20;;;;;;4979479;28;20037;-80
2023/10/09 16:06:11;;;;;;;7.88;2.83;;;26.90;67.80;;;;;;4997607;28;20041;-80
2023/10/09 16:08:38;;;;;;;3.25;1.52;;;26.50;68.30;;;;;;4977845;28;20030;-75
2023/10/09 16:11:04;;;;;;;10.25;2.75;;;26.10;69.30;;;;;;4996069;28;20451;-75
2023/10/09 16:13:32;;;;;;;5.18;1.90;;;25.70;69.60;;;;;;4977748;28;20049;-75
2023/10/09 16:15:59;;;;;;;11.85;2.17;;;25.40;69.90;;;;;;4996886;28;20030;-83
2023/10/09 16:18:27;;;;;;;9.80;2.55;;;25.10;70.80;;;;;;4994642;28;20029;-77
2023/10/09 16:20:54;;;;;;;9.55;2.05;;;24.90;71.10;;;;;;4979561;28;20506;-77
2023/10/09 16:23:20;;;;;;;14.27;2.72;;;24.70;71.70;;;;;;4995087;28;20034;-78
2023/10/09 16:25:46;;;;;;;13.75;3.33;;;24.40;72.10;;;;;;4996140;28;20045;-78
2023/10/09 16:28:13;;;;;;;7.88;3.20;;;24.30;72.10;;;;;;4999016;28;20102;-79